Time;durP1;ratioP1;P1;durP2;ratioP2;P2;SDS_P1;SDS_P2;PMS_P1;PMS_P2;Temp;Humidity;BMP_temperature;BMP_pressure;BME280_temperature;BME280_humidity;BME280_pressure;Samples;Min_cycle;Max_cycle;Signal;HPM_P1;HPM_P2
2022/01/17 00:00:52;;;;;;;3.80;2.90;;;;;;;;;;5043395;28;20827;-70
2022/01/17 00:03:39;;;;;;;3.80;2.73;;;;;;;;;;5036384;28;20322;-69
2022/01/17 00:06:26;;;;;;;5.57;2.93;;;;;;;;;;5039683;28;20259;-69
2022/01/17 00:09:13;;;;;;;7.00;3.57;;;;;;;;;;5040904;28;20351;-69
2022/01/17 00:12:00;;;;;;;3.97;2.30;;;;;;;;;;5037312;28;20282;-69
2022/01/17 00:14:47;;;;;;;6.27;2.67;;;;;;;;;;5040542;28;20213;-69
2022/01/17 00:17:39;;;;;;;3.80;2.77;;;;;;;;;;5044611;28;20238;-70
2022/01/17 00:20:27;;;;;;;4.67;3.00;;;;;;;;;;5041175;28;20207;-69
2022/01/17 00:23:14;;;;;;;4.57;2.57;;;;;;;;;;5040074;28;20208;-70
2022/01/17 00:26:01;;;;;;;4.33;2.67;;;;;;;;;;5040117;28;20733;-69
2022/01/17 00:28:48;;;;;;;5.37;2.53;;;;;;;;;;5042438;28;20212;-69
2022/01/17 00:31:35;;;;;;;4.13;2.57;;;;;;;;;;5040336;28;20568;-69
2022/01/17 00:34:24;;;;;;;5.20;2.70;;;;;;;;;;5051135;28;20821;-69
2022/01/17 00:37:11;;;;;;;4.47;2.63;;;;;;;;;;5067770;28;20315;-69
2022/01/17 00:39:59;;;;;;;5.83;2.80;;;;;;;;;;5061182;28;20275;-69
2022/01/17 00:42:46;;;;;;;3.73;2.70;;;;;;;;;;5059986;28;20662;-69
2022/01/17 00:45:35;;;;;;;4.60;2.83;;;;;;;;;;5059604;28;20390;-69
2022/01/17 00:48:22;;;;;;;3.73;2.73;;;;;;;;;;5062827;28;20690;-69
2022/01/17 00:51:10;;;;;;;4.47;2.80;;;;;;;;;;5061646;28;20676;-69
2022/01/17 00:53:57;;;;;;;4.40;2.47;;;;;;;;;;5060283;28;20631;-69
2022/01/17 00:56:44;;;;;;;3.63;2.27;;;;;;;;;;5061912;28;20667;-69
2022/01/17 00:59:32;;;;;;;5.23;2.87;;;;;;;;;;5057344;28;20729;-69
2022/01/17 01:02:20;;;;;;;4.30;2.57;;;;;;;;;;5062043;28;20286;-69
2022/01/17 01:05:08;;;;;;;3.40;2.50;;;;;;;;;;5060800;28;20232;-69
2022/01/17 01:07:57;;;;;;;3.53;2.27;;;;;;;;;;5061001;28;20694;-69
2022/01/17 01:10:44;;;;;;;4.23;2.60;;;;;;;;;;5059797;28;20300;-69
2022/01/17 01:13:31;;;;;;;4.17;2.20;;;;;;;;;;5064325;28;20233;-69
2022/01/17 01:16:32;;;;;;;3.87;2.50;;;;;;;;;;5059116;28;20242;-69
2022/01/17 01:19:28;;;;;;;3.43;2.27;;;;;;;;;;5058544;28;20219;-69
2022/01/17 01:28:22;;;;;;;4.50;2.40;;;;;;;;;;5061137;28;20286;-69
2022/01/17 01:31:14;;;;;;;4.40;2.37;;;;;;;;;;5061469;28;20297;-69
2022/01/17 01:34:04;;;;;;;2.47;2.00;;;;;;;;;;5059488;28;20246;-69
2022/01/17 01:36:51;;;;;;;3.60;2.50;;;;;;;;;;5062544;28;20232;-69
2022/01/17 01:39:38;;;;;;;3.30;2.13;;;;;;;;;;5061464;28;20274;-69
2022/01/17 01:42:29;;;;;;;2.40;1.83;;;;;;;;;;5060545;28;20328;-69
2022/01/17 01:45:16;;;;;;;4.73;2.07;;;;;;;;;;5060827;28;20645;-69
2022/01/17 01:48:05;;;;;;;4.30;2.00;;;;;;;;;;5061815;28;20203;-69
2022/01/17 01:50:52;;;;;;;3.27;2.20;;;;;;;;;;5059395;28;20211;-69
2022/01/17 01:53:39;;;;;;;3.30;2.13;;;;;;;;;;5060721;28;20202;-69
2022/01/17 01:56:26;;;;;;;4.30;1.97;;;;;;;;;;5061846;28;20288;-69
2022/01/17 01:59:16;;;;;;;3.47;1.83;;;;;;;;;;5054298;28;20251;-69
2022/01/17 02:02:04;;;;;;;2.93;2.10;;;;;;;;;;5057591;28;20291;-69
2022/01/17 02:04:51;;;;;;;2.30;1.53;;;;;;;;;;5058513;28;20311;-69
2022/01/17 02:07:39;;;;;;;3.70;2.07;;;;;;;;;;5063365;28;20246;-69
2022/01/17 02:10:26;;;;;;;2.30;1.60;;;;;;;;;;5058307;28;20217;-69
2022/01/17 02:13:12;;;;;;;1.73;1.60;;;;;;;;;;5055627;28;20223;-68
2022/01/17 02:16:05;;;;;;;2.60;1.83;;;;;;;;;;5060218;28;20294;-69
2022/01/17 02:18:52;;;;;;;2.57;1.73;;;;;;;;;;5058333;28;20230;-69
2022/01/17 02:21:46;;;;;;;3.73;1.70;;;;;;;;;;5058805;28;20257;-69
2022/01/17 02:24:33;;;;;;;3.00;1.60;;;;;;;;;;5063814;28;20226;-69
2022/01/17 02:27:20;;;;;;;1.80;1.27;;;;;;;;;;5060294;28;20311;-69
2022/01/17 02:30:08;;;;;;;1.73;1.63;;;;;;;;;;5056231;28;20249;-69
2022/01/17 02:32:55;;;;;;;2.40;1.00;;;;;;;;;;5055876;28;20303;-70
2022/01/17 02:35:47;;;;;;;1.77;1.67;;;;;;;;;;5062156;28;20748;-69
2022/01/17 02:38:35;;;;;;;1.87;1.13;;;;;;;;;;5060438;28;20289;-69
2022/01/17 02:41:22;;;;;;;2.10;1.20;;;;;;;;;;5058070;28;20211;-69
2022/01/17 02:44:10;;;;;;;1.53;1.43;;;;;;;;;;5058794;28;20619;-69
2022/01/17 02:46:58;;;;;;;3.13;1.70;;;;;;;;;;5060886;28;20204;-69
2022/01/17 02:49:45;;;;;;;1.67;1.20;;;;;;;;;;5058781;28;20671;-69
2022/01/17 02:52:32;;;;;;;1.77;1.40;;;;;;;;;;5058374;28;20223;-69
2022/01/17 02:55:20;;;;;;;1.80;1.10;;;;;;;;;;5059044;28;20199;-69
2022/01/17 02:58:07;;;;;;;1.97;1.30;;;;;;;;;;5058967;28;20218;-69
2022/01/17 03:00:56;;;;;;;1.83;1.10;;;;;;;;;;5058384;28;20292;-69
2022/01/17 03:03:43;;;;;;;2.13;1.70;;;;;;;;;;5058232;28;20235;-69
2022/01/17 03:06:30;;;;;;;1.50;1.07;;;;;;;;;;5060964;28;20332;-69
2022/01/17 03:09:17;;;;;;;2.30;1.37;;;;;;;;;;5061871;28;20347;-69
2022/01/17 03:12:07;;;;;;;1.67;1.13;;;;;;;;;;5062154;28;20219;-70
2022/01/17 03:14:54;;;;;;;1.60;0.83;;;;;;;;;;5063150;28;20243;-69
2022/01/17 03:17:41;;;;;;;1.40;1.10;;;;;;;;;;5057157;28;20745;-69
2022/01/17 03:20:28;;;;;;;1.20;0.90;;;;;;;;;;5060848;28;20281;-69
2022/01/17 03:23:16;;;;;;;1.07;1.07;;;;;;;;;;5065376;28;20211;-69
2022/01/17 03:26:04;;;;;;;1.17;0.93;;;;;;;;;;5060932;28;20643;-69
2022/01/17 03:28:53;;;;;;;1.23;0.90;;;;;;;;;;5064162;28;20426;-69
2022/01/17 03:31:40;;;;;;;1.67;0.90;;;;;;;;;;5066661;28;20212;-69
2022/01/17 03:34:27;;;;;;;1.10;0.77;;;;;;;;;;5062035;28;20322;-69
2022/01/17 03:37:14;;;;;;;1.23;0.70;;;;;;;;;;5064276;28;20234;-69
2022/01/17 03:40:00;;;;;;;2.47;0.90;;;;;;;;;;5061475;28;20234;-69
2022/01/17 03:42:47;;;;;;;0.87;0.80;;;;;;;;;;5062886;28;20688;-70
2022/01/17 03:45:36;;;;;;;1.37;0.90;;;;;;;;;;5060125;28;20324;-69
2022/01/17 03:48:23;;;;;;;1.00;0.90;;;;;;;;;;5064419;28;20295;-69
2022/01/17 03:51:10;;;;;;;1.17;0.90;;;;;;;;;;5060289;28;20284;-69
2022/01/17 03:53:57;;;;;;;1.20;1.00;;;;;;;;;;5059319;28;20318;-69
2022/01/17 03:56:44;;;;;;;0.83;0.63;;;;;;;;;;5062656;28;20294;-69
2022/01/17 03:59:31;;;;;;;0.70;0.70;;;;;;;;;;5062481;28;20728;-69
2022/01/17 04:02:19;;;;;;;0.93;0.70;;;;;;;;;;5060384;28;20242;-70
2022/01/17 04:05:07;;;;;;;1.10;0.90;;;;;;;;;;5065392;28;20848;-69
2022/01/17 04:07:54;;;;;;;1.43;1.10;;;;;;;;;;5058860;28;20295;-70
2022/01/17 04:10:41;;;;;;;0.80;0.73;;;;;;;;;;5060622;28;20288;-69
2022/01/17 04:13:28;;;;;;;0.87;0.87;;;;;;;;;;5060266;28;20208;-69
2022/01/17 04:16:15;;;;;;;0.80;0.77;;;;;;;;;;5062721;28;20196;-69
2022/01/17 04:19:04;;;;;;;0.67;0.50;;;;;;;;;;5059128;28;20245;-70
2022/01/17 04:21:51;;;;;;;1.00;0.93;;;;;;;;;;5061001;28;20207;-69
2022/01/17 04:24:38;;;;;;;1.30;0.87;;;;;;;;;;5060627;28;20742;-69
2022/01/17 04:27:25;;;;;;;1.03;0.93;;;;;;;;;;5063971;28;20761;-69
2022/01/17 04:30:13;;;;;;;1.97;0.90;;;;;;;;;;5064659;28;20256;-70
2022/01/17 04:33:01;;;;;;;1.07;0.73;;;;;;;;;;5057903;28;20315;-69
2022/01/17 04:35:49;;;;;;;2.40;1.00;;;;;;;;;;5059127;28;20235;-69
2022/01/17 04:38:37;;;;;;;1.20;1.00;;;;;;;;;;5058579;28;20452;-69
2022/01/17 04:41:35;;;;;;;1.20;0.63;;;;;;;;;;5058819;28;20739;-69
2022/01/17 04:47:43;;;;;;;0.50;0.50;;;;;;;;;;4996029;28;20832;-70
2022/01/17 04:50:31;;;;;;;0.80;0.80;;;;;;;;;;5000057;28;20296;-69
2022/01/17 04:53:21;;;;;;;2.13;1.27;;;;;;;;;;5052691;28;20240;-69
2022/01/17 04:56:08;;;;;;;1.10;0.80;;;;;;;;;;5062897;28;20294;-69
2022/01/17 04:58:55;;;;;;;1.00;0.60;;;;;;;;;;5060623;28;20290;-68
2022/01/17 05:01:41;;;;;;;0.90;0.83;;;;;;;;;;5061348;28;20213;-68
2022/01/17 05:04:28;;;;;;;1.20;0.97;;;;;;;;;;5058718;28;20217;-69
2022/01/17 05:07:15;;;;;;;0.70;0.70;;;;;;;;;;5060730;28;20228;-68
2022/01/17 05:10:07;;;;;;;1.03;0.93;;;;;;;;;;5056966;28;20292;-69
2022/01/17 05:12:54;;;;;;;1.03;0.97;;;;;;;;;;5062699;28;20361;-69
2022/01/17 05:15:47;;;;;;;1.27;0.93;;;;;;;;;;5058486;28;20219;-69
2022/01/17 05:21:38;;;;;;;0.77;0.73;;;;;;;;;;5056726;28;20623;-69
2022/01/17 05:24:25;;;;;;;1.57;0.97;;;;;;;;;;5059879;28;20839;-69
2022/01/17 05:27:14;;;;;;;1.00;0.90;;;;;;;;;;5063195;28;20250;-69
2022/01/17 05:30:01;;;;;;;1.10;0.70;;;;;;;;;;5061796;28;20313;-68
2022/01/17 05:32:49;;;;;;;0.67;0.67;;;;;;;;;;5061957;28;20211;-68
2022/01/17 05:35:36;;;;;;;0.80;0.80;;;;;;;;;;5056610;28;20583;-68
2022/01/17 05:38:23;;;;;;;0.77;0.70;;;;;;;;;;5060842;28;20294;-69
2022/01/17 05:41:10;;;;;;;0.73;0.73;;;;;;;;;;5060379;28;20333;-69
2022/01/17 05:43:59;;;;;;;0.97;0.87;;;;;;;;;;5061187;28;20304;-68
2022/01/17 05:46:46;;;;;;;2.50;1.43;;;;;;;;;;5059427;28;20223;-68
2022/01/17 05:49:33;;;;;;;0.70;0.70;;;;;;;;;;5057242;28;20219;-68
2022/01/17 05:52:20;;;;;;;1.17;1.07;;;;;;;;;;5057465;28;20301;-68
2022/01/17 05:55:09;;;;;;;1.17;1.07;;;;;;;;;;5060636;28;20208;-68
2022/01/17 05:57:58;;;;;;;1.47;1.00;;;;;;;;;;5062270;28;20222;-68
2022/01/17 06:00:46;;;;;;;0.70;0.70;;;;;;;;;;5061782;28;20207;-68
2022/01/17 06:03:33;;;;;;;0.77;0.70;;;;;;;;;;5056768;28;20299;-68
2022/01/17 06:06:20;;;;;;;1.30;1.10;;;;;;;;;;5060526;28;20872;-68
2022/01/17 06:09:07;;;;;;;0.83;0.70;;;;;;;;;;5058322;28;20294;-68
2022/01/17 06:11:54;;;;;;;0.87;0.83;;;;;;;;;;5061947;28;20211;-68
2022/01/17 06:14:41;;;;;;;1.50;1.00;;;;;;;;;;5057140;28;20247;-69
2022/01/17 06:17:29;;;;;;;1.27;1.00;;;;;;;;;;5058211;28;20751;-68
2022/01/17 06:20:16;;;;;;;0.80;0.80;;;;;;;;;;5056412;28;20211;-68
2022/01/17 06:23:03;;;;;;;1.00;0.90;;;;;;;;;;5057500;28;20211;-68
2022/01/17 06:25:50;;;;;;;1.07;1.00;;;;;;;;;;5063720;28;20717;-68
2022/01/17 06:28:37;;;;;;;1.23;0.80;;;;;;;;;;5059961;28;20330;-68
2022/01/17 06:31:24;;;;;;;1.07;0.90;;;;;;;;;;5061505;28;20296;-68
2022/01/17 06:34:12;;;;;;;1.43;1.13;;;;;;;;;;5057067;28;20308;-68
2022/01/17 06:36:59;;;;;;;0.83;0.80;;;;;;;;;;5058994;28;20246;-68
2022/01/17 06:39:46;;;;;;;1.00;0.90;;;;;;;;;;5062800;28;20211;-68
2022/01/17 06:42:33;;;;;;;1.00;0.90;;;;;;;;;;5061175;28;20211;-68
2022/01/17 06:45:21;;;;;;;2.47;1.17;;;;;;;;;;5060528;28;20215;-68
2022/01/17 06:48:08;;;;;;;0.80;0.80;;;;;;;;;;5058773;28;20208;-68
2022/01/17 06:50:56;;;;;;;1.43;1.00;;;;;;;;;;5055186;28;20272;-69
2022/01/17 06:53:43;;;;;;;1.43;1.00;;;;;;;;;;5060141;28;20746;-68
2022/01/17 06:56:30;;;;;;;0.87;0.80;;;;;;;;;;5060067;28;20294;-68
2022/01/17 06:59:17;;;;;;;1.50;1.07;;;;;;;;;;5057208;28;20208;-69
2022/01/17 07:02:04;;;;;;;1.37;0.90;;;;;;;;;;5058842;28;20210;-69
2022/01/17 07:04:51;;;;;;;0.73;0.70;;;;;;;;;;5059295;28;20235;-69
2022/01/17 07:07:39;;;;;;;1.33;1.10;;;;;;;;;;5058413;28;20285;-69
2022/01/17 07:10:28;;;;;;;1.40;1.00;;;;;;;;;;5058453;28;20235;-68
2022/01/17 07:13:15;;;;;;;1.10;1.00;;;;;;;;;;5056588;28;20208;-68
2022/01/17 07:16:02;;;;;;;0.97;0.97;;;;;;;;;;5059864;28;20750;-67
2022/01/17 07:18:49;;;;;;;0.87;0.87;;;;;;;;;;5057964;28;20236;-68
2022/01/17 07:21:36;;;;;;;0.97;0.83;;;;;;;;;;5063170;28;20252;-68
2022/01/17 07:24:24;;;;;;;0.83;0.83;;;;;;;;;;5059960;28;20290;-68
2022/01/17 07:27:11;;;;;;;1.53;1.10;;;;;;;;;;5055984;28;20321;-68
2022/01/17 07:29:58;;;;;;;1.00;1.00;;;;;;;;;;5059257;28;20377;-68
2022/01/17 07:32:45;;;;;;;1.13;1.03;;;;;;;;;;5059459;28;20634;-68
2022/01/17 07:35:33;;;;;;;1.13;0.90;;;;;;;;;;5037869;28;20218;-68
2022/01/17 07:38:20;;;;;;;1.53;0.70;;;;;;;;;;5035847;28;20689;-68
2022/01/17 07:41:08;;;;;;;1.03;0.90;;;;;;;;;;5037513;28;20310;-68
2022/01/17 07:43:55;;;;;;;0.90;0.90;;;;;;;;;;5038383;28;20308;-69
2022/01/17 07:46:50;;;;;;;1.10;0.97;;;;;;;;;;5035271;28;20367;-69
2022/01/17 07:49:36;;;;;;;0.83;0.80;;;;;;;;;;5039258;28;20236;-68
2022/01/17 07:52:23;;;;;;;0.70;0.70;;;;;;;;;;5040468;28;20644;-68
2022/01/17 07:55:11;;;;;;;0.90;0.90;;;;;;;;;;5041987;28;20208;-68
2022/01/17 07:57:59;;;;;;;2.20;1.03;;;;;;;;;;5040118;28;20292;-68
2022/01/17 08:00:46;;;;;;;1.23;0.97;;;;;;;;;;5037692;28;20243;-68
2022/01/17 08:03:33;;;;;;;1.20;1.10;;;;;;;;;;5039077;28;20255;-69
2022/01/17 08:06:21;;;;;;;0.83;0.83;;;;;;;;;;5039654;28;20688;-68
2022/01/17 08:09:10;;;;;;;1.80;1.20;;;;;;;;;;5039861;28;20608;-68
2022/01/17 08:11:57;;;;;;;1.20;1.10;;;;;;;;;;5037994;28;20248;-69
2022/01/17 08:14:45;;;;;;;0.73;0.73;;;;;;;;;;5041263;28;20208;-68
2022/01/17 08:17:32;;;;;;;1.20;1.00;;;;;;;;;;5041088;28;20329;-68
2022/01/17 08:20:20;;;;;;;0.80;0.80;;;;;;;;;;5039198;28;20204;-68
2022/01/17 08:23:07;;;;;;;0.93;0.80;;;;;;;;;;5039975;28;20208;-68
2022/01/17 08:25:54;;;;;;;1.80;1.20;;;;;;;;;;5032477;28;20620;-68
2022/01/17 08:28:41;;;;;;;1.20;0.90;;;;;;;;;;5040455;28;20300;-68
2022/01/17 08:31:30;;;;;;;0.80;0.80;;;;;;;;;;5040284;28;20352;-68
2022/01/17 08:34:17;;;;;;;0.90;0.90;;;;;;;;;;5051111;28;20369;-68
2022/01/17 08:37:05;;;;;;;1.17;0.90;;;;;;;;;;5059807;28;20667;-68
2022/01/17 08:39:52;;;;;;;1.00;1.00;;;;;;;;;;5058962;28;20498;-68
2022/01/17 08:42:39;;;;;;;1.20;1.07;;;;;;;;;;5059931;28;20698;-68
2022/01/17 08:45:27;;;;;;;1.70;1.20;;;;;;;;;;5062478;28;20201;-69
2022/01/17 08:48:16;;;;;;;0.87;0.80;;;;;;;;;;5062596;28;20234;-68
2022/01/17 08:51:03;;;;;;;1.00;0.90;;;;;;;;;;5064280;28;20664;-68
2022/01/17 08:53:50;;;;;;;0.83;0.83;;;;;;;;;;5056608;28;20244;-68
2022/01/17 08:56:37;;;;;;;1.30;0.80;;;;;;;;;;5059554;28;20292;-68
2022/01/17 08:59:24;;;;;;;0.97;0.90;;;;;;;;;;5058608;28;20250;-68
2022/01/17 09:02:11;;;;;;;1.03;0.93;;;;;;;;;;5061219;28;20209;-68
2022/01/17 09:04:59;;;;;;;1.60;1.10;;;;;;;;;;5060270;28;20208;-68
2022/01/17 09:07:47;;;;;;;0.90;0.90;;;;;;;;;;5058511;28;20266;-68
2022/01/17 09:10:34;;;;;;;1.00;0.90;;;;;;;;;;5062868;28;20212;-68
2022/01/17 09:13:21;;;;;;;0.80;0.80;;;;;;;;;;5058667;28;20203;-68
2022/01/17 09:16:08;;;;;;;0.70;0.70;;;;;;;;;;5064184;28;20298;-68
2022/01/17 09:18:55;;;;;;;0.60;0.60;;;;;;;;;;5061615;28;20702;-68
2022/01/17 09:21:44;;;;;;;1.00;0.93;;;;;;;;;;5060016;28;20294;-68
2022/01/17 09:24:30;;;;;;;0.90;0.87;;;;;;;;;;5060740;28;20290;-68
2022/01/17 09:27:18;;;;;;;2.87;0.90;;;;;;;;;;5061615;28;20310;-68
2022/01/17 09:30:08;;;;;;;1.03;0.87;;;;;;;;;;5063810;28;20211;-68
2022/01/17 09:32:55;;;;;;;1.90;1.00;;;;;;;;;;5058590;28;20235;-68
2022/01/17 09:35:42;;;;;;;0.90;0.90;;;;;;;;;;5040022;28;20293;-68
2022/01/17 09:38:30;;;;;;;0.80;0.80;;;;;;;;;;5042500;28;20240;-67
2022/01/17 09:41:17;;;;;;;2.30;1.10;;;;;;;;;;5039421;28;20210;-68
2022/01/17 09:44:05;;;;;;;1.73;1.10;;;;;;;;;;5043289;28;20212;-69
2022/01/17 09:46:55;;;;;;;0.67;0.67;;;;;;;;;;5045502;28;20216;-68
2022/01/17 09:49:48;;;;;;;2.53;0.90;;;;;;;;;;5039766;28;20589;-68
2022/01/17 09:52:35;;;;;;;0.87;0.87;;;;;;;;;;5035011;28;20208;-68
2022/01/17 09:55:26;;;;;;;0.97;0.97;;;;;;;;;;5040616;28;20223;-68
2022/01/17 09:58:15;;;;;;;1.20;1.10;;;;;;;;;;5040359;28;20782;-68
2022/01/17 10:01:03;;;;;;;0.93;0.90;;;;;;;;;;5035309;28;20210;-68
2022/01/17 10:03:52;;;;;;;1.20;1.10;;;;;;;;;;5038798;28;20208;-68
2022/01/17 10:06:41;;;;;;;0.97;0.73;;;;;;;;;;5037334;28;20319;-68
2022/01/17 10:09:31;;;;;;;1.10;1.00;;;;;;;;;;5041149;28;20233;-66
2022/01/17 10:12:19;;;;;;;1.73;1.00;;;;;;;;;;5040856;28;20204;-68
2022/01/17 10:15:12;;;;;;;1.67;1.00;;;;;;;;;;5037653;28;20213;-68
2022/01/17 10:17:59;;;;;;;0.97;0.97;;;;;;;;;;5041789;28;20217;-69
2022/01/17 10:20:51;;;;;;;0.80;0.80;;;;;;;;;;5037327;28;20626;-68
2022/01/17 10:27:09;;;;;;;0.80;0.80;;;;;;;;;;5013357;28;20226;-68
2022/01/17 10:36:23;;;;;;;1.13;0.87;;;;;;;;;;5040453;28;20218;-68
2022/01/17 10:39:11;;;;;;;0.93;0.80;;;;;;;;;;5039764;28;20630;-68
2022/01/17 10:41:58;;;;;;;1.03;0.93;;;;;;;;;;5038430;28;20328;-68
2022/01/17 10:44:45;;;;;;;1.37;0.73;;;;;;;;;;5036864;28;20322;-68
2022/01/17 10:47:36;;;;;;;0.80;0.80;;;;;;;;;;5039034;28;20735;-68
2022/01/17 10:50:25;;;;;;;0.60;0.60;;;;;;;;;;5041136;28;20253;-68
2022/01/17 10:53:16;;;;;;;1.13;1.00;;;;;;;;;;5036590;28;20567;-68
2022/01/17 10:56:07;;;;;;;0.70;0.60;;;;;;;;;;5039075;28;20287;-66
2022/01/17 10:59:03;;;;;;;0.80;0.53;;;;;;;;;;5036412;28;20209;-68
2022/01/17 11:01:53;;;;;;;1.27;1.00;;;;;;;;;;5035420;28;20237;-68
2022/01/17 11:04:42;;;;;;;0.80;0.70;;;;;;;;;;5030275;28;20208;-68
2022/01/17 11:07:29;;;;;;;1.03;0.70;;;;;;;;;;5038376;28;20213;-68
2022/01/17 11:10:20;;;;;;;0.60;0.60;;;;;;;;;;5026637;28;20249;-68
2022/01/17 11:13:09;;;;;;;1.60;0.70;;;;;;;;;;5039461;28;20205;-69
2022/01/17 11:16:01;;;;;;;0.80;0.80;;;;;;;;;;5041117;28;20251;-68
2022/01/17 11:18:59;;;;;;;0.70;0.70;;;;;;;;;;5034789;28;20633;-69
2022/01/17 11:21:47;;;;;;;1.03;0.70;;;;;;;;;;5039704;28;20221;-69
2022/01/17 11:24:35;;;;;;;1.10;0.90;;;;;;;;;;5035274;28;20206;-68
2022/01/17 11:27:22;;;;;;;0.97;0.77;;;;;;;;;;5036358;28;20234;-68
2022/01/17 11:30:10;;;;;;;0.80;0.53;;;;;;;;;;5043095;28;20260;-69
2022/01/17 11:32:58;;;;;;;1.90;0.70;;;;;;;;;;5031155;28;20216;-69
2022/01/17 11:35:51;;;;;;;0.50;0.50;;;;;;;;;;5063137;28;20229;-69
2022/01/17 11:38:42;;;;;;;0.57;0.57;;;;;;;;;;5065230;28;20203;-69
2022/01/17 11:41:34;;;;;;;0.70;0.70;;;;;;;;;;5063620;28;20290;-69
2022/01/17 11:44:33;;;;;;;0.83;0.53;;;;;;;;;;5063447;28;20500;-69
2022/01/17 11:47:46;;;;;;;0.50;0.50;;;;;;;;;;5063139;28;20594;-69
2022/01/17 11:50:43;;;;;;;1.30;0.60;;;;;;;;;;5061575;28;20259;-68
2022/01/17 11:53:53;;;;;;;0.80;0.60;;;;;;;;;;5061149;28;20210;-70
2022/01/17 11:56:47;;;;;;;0.60;0.50;;;;;;;;;;5061425;28;20553;-69
2022/01/17 11:59:38;;;;;;;0.50;0.50;;;;;;;;;;5064034;28;20240;-69
2022/01/17 12:02:28;;;;;;;0.40;0.40;;;;;;;;;;5057204;28;20205;-69
2022/01/17 12:05:44;;;;;;;0.40;0.40;;;;;;;;;;5062691;28;20241;-69
2022/01/17 12:08:32;;;;;;;0.75;0.70;;;;;;;;;;5059617;28;20690;-68
2022/01/17 12:11:28;;;;;;;1.00;0.63;;;;;;;;;;5060330;28;20202;-69
2022/01/17 12:14:30;;;;;;;0.73;0.50;;;;;;;;;;5064601;28;20217;-68
2022/01/17 12:17:31;;;;;;;0.40;0.40;;;;;;;;;;5058694;28;20221;-69
2022/01/17 12:20:22;;;;;;;0.33;0.33;;;;;;;;;;5063048;28;20697;-69
2022/01/17 12:23:25;;;;;;;0.50;0.30;;;;;;;;;;5062592;28;20688;-69
2022/01/17 12:26:30;;;;;;;0.50;0.50;;;;;;;;;;5060356;28;20233;-69
2022/01/17 12:29:35;;;;;;;0.53;0.53;;;;;;;;;;5058964;28;20228;-69
2022/01/17 12:32:48;;;;;;;0.43;0.40;;;;;;;;;;5058292;28;20240;-69
2022/01/17 12:35:45;;;;;;;0.50;0.47;;;;;;;;;;5066135;28;20242;-69
2022/01/17 12:38:36;;;;;;;0.60;0.60;;;;;;;;;;5062620;28;20220;-69
2022/01/17 12:41:33;;;;;;;0.33;0.30;;;;;;;;;;5056884;28;20198;-69
2022/01/17 12:44:23;;;;;;;1.10;0.70;;;;;;;;;;5061228;28;20220;-69
2022/01/17 12:47:10;;;;;;;0.60;0.60;;;;;;;;;;5063716;28;20437;-69
2022/01/17 12:49:57;;;;;;;0.97;0.97;;;;;;;;;;5059183;28;20285;-69
2022/01/17 12:52:44;;;;;;;3.20;0.57;;;;;;;;;;5062835;28;20218;-69
2022/01/17 12:55:40;;;;;;;0.70;0.70;;;;;;;;;;5058095;28;20227;-69
2022/01/17 12:58:30;;;;;;;1.70;0.97;;;;;;;;;;5060265;28;20649;-69
2022/01/17 13:01:18;;;;;;;0.70;0.70;;;;;;;;;;5064943;28;20218;-69
2022/01/17 13:04:08;;;;;;;1.23;0.70;;;;;;;;;;5059849;28;20214;-69
2022/01/17 13:06:55;;;;;;;0.70;0.70;;;;;;;;;;5058823;28;20294;-69
2022/01/17 13:09:43;;;;;;;1.37;0.87;;;;;;;;;;5061660;28;20282;-68
2022/01/17 13:12:30;;;;;;;0.63;0.60;;;;;;;;;;5061374;28;20223;-68
2022/01/17 13:15:19;;;;;;;0.60;0.60;;;;;;;;;;5062005;28;20294;-69
2022/01/17 13:18:07;;;;;;;0.50;0.50;;;;;;;;;;5062189;28;20236;-68
2022/01/17 13:20:54;;;;;;;0.60;0.53;;;;;;;;;;5058670;28;20215;-68
2022/01/17 13:23:48;;;;;;;0.50;0.50;;;;;;;;;;5062027;28;20215;-68
2022/01/17 13:26:37;;;;;;;0.60;0.53;;;;;;;;;;5059831;28;20315;-68
2022/01/17 13:29:25;;;;;;;0.70;0.70;;;;;;;;;;5058451;28;20661;-68
2022/01/17 13:32:14;;;;;;;1.13;0.40;;;;;;;;;;5064927;28;20208;-68
2022/01/17 13:35:12;;;;;;;0.70;0.50;;;;;;;;;;5062233;28;20243;-69
2022/01/17 13:38:07;;;;;;;0.47;0.43;;;;;;;;;;5060276;28;20238;-69
2022/01/17 13:41:01;;;;;;;0.60;0.60;;;;;;;;;;5060427;28;20286;-68
2022/01/17 13:43:51;;;;;;;1.67;0.73;;;;;;;;;;5061944;28;20209;-69
2022/01/17 13:46:43;;;;;;;0.53;0.53;;;;;;;;;;5062297;28;20222;-69
2022/01/17 13:49:33;;;;;;;0.47;0.47;;;;;;;;;;5058279;28;20226;-68
2022/01/17 13:52:26;;;;;;;0.60;0.60;;;;;;;;;;5058799;28;20210;-68
2022/01/17 13:55:35;;;;;;;0.80;0.80;;;;;;;;;;5058822;28;20239;-68
2022/01/17 13:58:26;;;;;;;1.53;0.50;;;;;;;;;;5055845;28;20297;-68
2022/01/17 14:01:14;;;;;;;0.47;0.40;;;;;;;;;;5060958;28;20294;-68
2022/01/17 14:04:04;;;;;;;0.50;0.50;;;;;;;;;;5058079;28;20694;-68
2022/01/17 14:06:52;;;;;;;0.40;0.40;;;;;;;;;;5058601;28;20219;-68
2022/01/17 14:09:42;;;;;;;0.67;0.60;;;;;;;;;;5061015;28;20688;-68
2022/01/17 14:12:30;;;;;;;0.40;0.40;;;;;;;;;;5056935;28;20260;-68
2022/01/17 14:15:26;;;;;;;0.40;0.40;;;;;;;;;;5061127;28;20203;-67
2022/01/17 14:18:14;;;;;;;0.53;0.53;;;;;;;;;;5056940;28;20247;-68
2022/01/17 14:21:01;;;;;;;0.33;0.33;;;;;;;;;;5059101;28;20214;-68
2022/01/17 14:23:50;;;;;;;0.60;0.60;;;;;;;;;;5056429;28;20684;-69
2022/01/17 14:26:38;;;;;;;0.47;0.47;;;;;;;;;;5055517;28;20383;-69
2022/01/17 14:29:27;;;;;;;0.50;0.50;;;;;;;;;;5066362;28;20708;-69
2022/01/17 14:32:16;;;;;;;0.50;0.40;;;;;;;;;;5059402;28;20291;-69
2022/01/17 14:35:09;;;;;;;0.97;0.60;;;;;;;;;;5040783;28;20239;-69
2022/01/17 14:38:00;;;;;;;0.47;0.47;;;;;;;;;;5041658;28;20200;-69
2022/01/17 14:40:52;;;;;;;0.40;0.40;;;;;;;;;;5040577;28;20216;-69
2022/01/17 14:43:39;;;;;;;0.57;0.50;;;;;;;;;;5042147;28;20250;-69
2022/01/17 14:46:26;;;;;;;0.50;0.50;;;;;;;;;;5037219;28;20218;-68
2022/01/17 14:49:18;;;;;;;0.60;0.60;;;;;;;;;;5039957;28;20293;-69
2022/01/17 14:52:12;;;;;;;1.40;0.50;;;;;;;;;;5036197;28;20239;-68
2022/01/17 15:01:16;;;;;;;0.40;0.40;;;;;;;;;;5037796;28;20635;-68
2022/01/17 15:04:04;;;;;;;0.70;0.70;;;;;;;;;;5041870;28;20587;-68
2022/01/17 15:06:51;;;;;;;0.50;0.50;;;;;;;;;;5041756;28;20736;-68
2022/01/17 15:09:38;;;;;;;0.93;0.50;;;;;;;;;;5044998;28;20233;-66
2022/01/17 15:12:25;;;;;;;0.53;0.53;;;;;;;;;;5042291;28;20221;-68
2022/01/17 15:15:14;;;;;;;0.57;0.53;;;;;;;;;;5041500;28;20328;-68
2022/01/17 15:18:06;;;;;;;1.33;0.60;;;;;;;;;;5044924;28;20230;-68
2022/01/17 15:20:53;;;;;;;0.50;0.50;;;;;;;;;;5040242;28;20203;-68
2022/01/17 15:23:40;;;;;;;0.50;0.50;;;;;;;;;;5042751;28;20427;-68
2022/01/17 15:26:27;;;;;;;0.67;0.63;;;;;;;;;;5045481;28;20326;-68
2022/01/17 15:29:21;;;;;;;0.60;0.60;;;;;;;;;;5041216;28;20222;-69
2022/01/17 15:32:11;;;;;;;0.60;0.60;;;;;;;;;;5041684;28;21423;-68
2022/01/17 15:34:58;;;;;;;0.73;0.70;;;;;;;;;;5062148;28;20248;-68
2022/01/17 15:37:45;;;;;;;0.50;0.50;;;;;;;;;;5064733;28;20296;-68
2022/01/17 15:40:32;;;;;;;1.07;0.80;;;;;;;;;;5063778;28;20201;-68
2022/01/17 15:43:19;;;;;;;2.43;0.70;;;;;;;;;;5063232;28;20254;-68
2022/01/17 15:46:06;;;;;;;0.53;0.53;;;;;;;;;;5062863;28;20217;-68
2022/01/17 15:48:54;;;;;;;0.63;0.63;;;;;;;;;;5060973;28;20253;-68
2022/01/17 15:51:41;;;;;;;1.00;0.60;;;;;;;;;;5062009;28;20212;-69
2022/01/17 15:54:30;;;;;;;0.73;0.60;;;;;;;;;;5060679;28;20244;-68
2022/01/17 15:57:17;;;;;;;0.90;0.70;;;;;;;;;;5058385;28;20221;-68
2022/01/17 16:00:06;;;;;;;0.60;0.60;;;;;;;;;;5059872;28;20249;-68
2022/01/17 16:02:53;;;;;;;0.80;0.80;;;;;;;;;;5055024;28;20196;-68
2022/01/17 16:05:43;;;;;;;0.70;0.67;;;;;;;;;;5069905;28;20247;-69
2022/01/17 16:08:30;;;;;;;0.80;0.80;;;;;;;;;;5060700;28;20233;-69
2022/01/17 16:11:17;;;;;;;0.70;0.70;;;;;;;;;;5059577;28;20268;-69
2022/01/17 16:14:05;;;;;;;0.60;0.60;;;;;;;;;;5058396;28;20208;-69
2022/01/17 16:16:51;;;;;;;1.07;0.87;;;;;;;;;;5061025;28;20280;-67
2022/01/17 16:19:38;;;;;;;0.87;0.87;;;;;;;;;;5060690;28;20233;-69
2022/01/17 16:22:27;;;;;;;0.87;0.77;;;;;;;;;;5064766;28;20237;-68
2022/01/17 16:25:14;;;;;;;0.97;0.80;;;;;;;;;;5059693;28;20588;-68
2022/01/17 16:28:01;;;;;;;1.53;0.70;;;;;;;;;;5063972;28;20228;-69
2022/01/17 16:30:48;;;;;;;0.80;0.80;;;;;;;;;;5064942;28;20341;-69
2022/01/17 16:33:35;;;;;;;1.93;0.80;;;;;;;;;;5059031;28;20236;-69
2022/01/17 16:36:22;;;;;;;0.70;0.70;;;;;;;;;;5062437;28;20240;-69
2022/01/17 16:39:10;;;;;;;0.70;0.70;;;;;;;;;;5057964;28;20266;-69
2022/01/17 16:41:57;;;;;;;0.73;0.70;;;;;;;;;;5058626;28;20212;-69
2022/01/17 16:44:46;;;;;;;0.70;0.70;;;;;;;;;;5060928;28;20236;-69
2022/01/17 16:47:35;;;;;;;0.70;0.70;;;;;;;;;;5059578;28;20202;-68
2022/01/17 16:50:23;;;;;;;0.97;0.80;;;;;;;;;;5059661;28;20596;-69
2022/01/17 16:53:10;;;;;;;1.00;1.00;;;;;;;;;;5058303;28;20206;-68
2022/01/17 16:55:58;;;;;;;0.80;0.80;;;;;;;;;;5060507;28;20239;-69
2022/01/17 16:58:45;;;;;;;0.97;0.97;;;;;;;;;;5061099;28;20298;-69
2022/01/17 17:01:33;;;;;;;1.73;1.00;;;;;;;;;;5056887;28;20209;-69
2022/01/17 17:04:20;;;;;;;0.70;0.70;;;;;;;;;;5064742;28;20235;-69
2022/01/17 17:07:07;;;;;;;1.13;1.03;;;;;;;;;;5062948;28;20679;-69
2022/01/17 17:09:54;;;;;;;2.00;1.00;;;;;;;;;;5060765;28;20307;-69
2022/01/17 17:12:44;;;;;;;0.80;0.80;;;;;;;;;;5060473;28;20220;-69
2022/01/17 17:15:30;;;;;;;2.40;1.20;;;;;;;;;;5057678;28;20212;-68
2022/01/17 17:18:18;;;;;;;1.20;0.80;;;;;;;;;;5059561;28;20212;-69
2022/01/17 17:21:05;;;;;;;0.80;0.80;;;;;;;;;;5056952;28;20205;-69